createdAt,value
2022-12-24T00:00:01.497Z,1001.26
2022-12-24T00:01:01.100Z,1001.25
2022-12-24T00:02:01.110Z,1001.28
2022-12-24T00:03:01.240Z,1001.26
2022-12-24T00:04:01.036Z,1001.15
2022-12-24T00:05:01.751Z,1001.16
2022-12-24T00:06:01.309Z,1001.18
2022-12-24T00:07:01.183Z,1001.12
2022-12-24T00:08:01.513Z,1001.14
2022-12-24T00:09:01.325Z,1001.1
2022-12-24T00:10:02.259Z,1001.16
2022-12-24T00:11:01.142Z,1001.15
2022-12-24T00:12:01.060Z,1001.15
2022-12-24T00:13:01.332Z,1001.16
2022-12-24T00:14:01.997Z,1001.2
2022-12-24T00:15:02.080Z,1001.13
2022-12-24T00:16:01.601Z,1001.18
2022-12-24T00:17:01.585Z,1001.17
2022-12-24T00:18:01.507Z,1001.06
2022-12-24T00:19:01.549Z,1001.09
2022-12-24T00:20:01.251Z,1001.1
2022-12-24T00:21:01.945Z,1001.05
2022-12-24T00:22:01.379Z,1000.97
2022-12-24T00:23:01.159Z,1000.95
2022-12-24T00:24:01.163Z,1000.99
2022-12-24T00:25:01.068Z,1000.97
2022-12-24T00:26:01.215Z,1000.98
2022-12-24T00:27:01.103Z,1001.08
2022-12-24T00:28:01.099Z,1001.06
2022-12-24T00:29:01.099Z,1001.12
2022-12-24T00:30:01.098Z,1001.07
2022-12-24T00:31:02.440Z,1001.16
2022-12-24T00:32:01.109Z,1001.16
2022-12-24T00:33:01.206Z,1001.17
2022-12-24T00:34:01.163Z,1001.17
2022-12-24T00:35:01.423Z,1001.12
2022-12-24T00:36:01.126Z,1001.1
2022-12-24T00:37:01.051Z,1001.05
2022-12-24T00:38:01.165Z,1001.06
2022-12-24T00:39:01.051Z,1001.02
2022-12-24T00:40:01.058Z,1001.03
2022-12-24T00:41:01.175Z,1001.07
2022-12-24T00:42:01.164Z,1001.08
2022-12-24T00:43:01.187Z,1001.01
2022-12-24T00:44:01.903Z,1001.05
2022-12-24T00:45:00.825Z,1001.06
2022-12-24T00:46:00.635Z,1001.1
2022-12-24T00:47:00.560Z,1001.11
2022-12-24T00:48:00.281Z,1001.13
2022-12-24T00:48:59.968Z,1001.12
2022-12-24T00:49:59.808Z,1001.15
2022-12-24T00:51:01.556Z,1001.15
2022-12-24T00:52:01.518Z,1001.12
2022-12-24T00:53:01.549Z,1001.09
2022-12-24T00:54:02.092Z,1001.04
2022-12-24T00:55:01.272Z,1001.1
2022-12-24T00:56:03.281Z,1001.05
2022-12-24T00:57:02.309Z,1001.01
2022-12-24T00:58:01.090Z,1001.07
2022-12-24T00:59:01.128Z,1001.06
2022-12-24T01:00:01.070Z,1000.99
2022-12-24T01:01:05.494Z,1000.99
2022-12-24T01:02:01.205Z,1001.02
2022-12-24T01:03:01.324Z,1001.06
2022-12-24T01:04:01.212Z,1001.05
2022-12-24T01:05:01.717Z,1001.08
2022-12-24T01:06:07.653Z,1001.08
2022-12-24T01:07:01.129Z,1001.05
2022-12-24T01:08:01.150Z,1001.12
2022-12-24T01:09:01.156Z,1001.16
2022-12-24T01:10:00.917Z,1001.09
2022-12-24T01:11:10.226Z,1001.11
2022-12-24T01:12:01.267Z,1001.16
2022-12-24T01:13:02.001Z,1001.21
2022-12-24T01:14:01.550Z,1001.23
2022-12-24T01:15:01.074Z,1001.21
2022-12-24T01:16:13.530Z,1001.15
2022-12-24T01:17:01.641Z,1001.19
2022-12-24T01:18:01.139Z,1001.15
2022-12-24T01:19:01.877Z,1001.16
2022-12-24T01:20:01.922Z,1001.21
2022-12-24T01:21:15.614Z,1001.26
2022-12-24T01:22:01.418Z,1001.28
2022-12-24T01:23:01.374Z,1001.31
2022-12-24T01:24:02.147Z,1001.37
2022-12-24T01:25:01.151Z,1001.35
2022-12-24T01:26:01.168Z,1001.33
2022-12-24T01:27:01.160Z,1001.3
2022-12-24T01:28:01.153Z,1001.31
2022-12-24T01:29:01.159Z,1001.33
2022-12-24T01:30:01.246Z,1001.33
2022-12-24T01:31:01.124Z,1001.35
2022-12-24T01:32:01.284Z,1001.38
2022-12-24T01:33:01.317Z,1001.35
2022-12-24T01:34:01.469Z,1001.39
2022-12-24T01:35:02.183Z,1001.36
2022-12-24T01:36:01.119Z,1001.41
2022-12-24T01:37:01.076Z,1001.4
2022-12-24T01:38:01.133Z,1001.36
2022-12-24T01:39:01.856Z,1001.35
2022-12-24T01:40:01.129Z,1001.37
2022-12-24T01:41:01.257Z,1001.45
2022-12-24T01:42:01.550Z,1001.48
2022-12-24T01:43:02.168Z,1001.48
2022-12-24T01:44:02.214Z,1001.5
2022-12-24T01:45:01.156Z,1001.51
2022-12-24T01:46:01.116Z,1001.54
2022-12-24T01:47:01.074Z,1001.54
2022-12-24T01:48:01.091Z,1001.52
2022-12-24T01:49:01.088Z,1001.53
2022-12-24T01:50:01.473Z,1001.62
2022-12-24T01:51:01.094Z,1001.56
2022-12-24T01:52:01.104Z,1001.64
2022-12-24T01:53:01.115Z,1001.64
2022-12-24T01:54:01.886Z,1001.61
2022-12-24T01:55:01.068Z,1001.65
2022-12-24T01:56:01.134Z,1001.67
2022-12-24T01:57:01.192Z,1001.65
2022-12-24T01:58:01.763Z,1001.68
2022-12-24T01:59:01.564Z,1001.73
2022-12-24T02:00:02.384Z,1001.65
2022-12-24T02:01:01.477Z,1001.71
2022-12-24T02:02:01.331Z,1001.76
2022-12-24T02:03:01.322Z,1001.75
2022-12-24T02:04:01.117Z,1001.76
2022-12-24T02:05:01.102Z,1001.77
2022-12-24T02:06:01.100Z,1001.73
2022-12-24T02:07:01.321Z,1001.77
2022-12-24T02:08:01.385Z,1001.78
2022-12-24T02:09:01.480Z,1001.79
2022-12-24T02:10:01.148Z,1001.72
2022-12-24T02:11:03.967Z,1001.74
2022-12-24T02:12:01.175Z,1001.75
2022-12-24T02:13:01.153Z,1001.83
2022-12-24T02:14:01.142Z,1001.84
2022-12-24T02:15:01.170Z,1001.84
2022-12-24T02:16:01.216Z,1001.86
2022-12-24T02:17:04.108Z,1001.9
2022-12-24T02:18:02.228Z,1001.87
2022-12-24T02:19:01.326Z,1001.9
2022-12-24T02:20:02.215Z,1001.85
2022-12-24T02:21:01.220Z,1001.89
2022-12-24T02:22:01.173Z,1001.92
2022-12-24T02:23:01.132Z,1001.92
2022-12-24T02:24:01.865Z,1001.93
2022-12-24T02:25:01.549Z,1001.89
2022-12-24T02:26:00.728Z,1001.88
2022-12-24T02:27:00.418Z,1001.91
2022-12-24T02:28:00.108Z,1001.91
2022-12-24T02:28:59.703Z,1001.94
2022-12-24T02:30:01.421Z,1001.9
2022-12-24T02:31:01.276Z,1001.96
2022-12-24T02:32:01.169Z,1001.97
2022-12-24T02:33:01.964Z,1001.96
2022-12-24T02:34:01.492Z,1002
2022-12-24T02:35:02.067Z,1002.02
2022-12-24T02:36:01.181Z,1002.02
2022-12-24T02:37:01.209Z,1002.03
2022-12-24T02:38:01.205Z,1002.08
2022-12-24T02:39:01.254Z,1002.07
2022-12-24T02:40:01.356Z,1002.08
2022-12-24T02:41:01.951Z,1002.1
2022-12-24T02:42:02.727Z,1002.15
2022-12-24T02:43:01.225Z,1002.14
2022-12-24T02:44:00.919Z,1002.16
2022-12-24T02:45:01.168Z,1002.21
2022-12-24T02:46:00.655Z,1002.19
2022-12-24T02:47:04.948Z,1002.2
2022-12-24T02:48:01.328Z,1002.19
2022-12-24T02:49:01.575Z,1002.21
2022-12-24T02:50:01.563Z,1002.25
2022-12-24T02:51:01.265Z,1002.27
2022-12-24T02:52:08.902Z,1002.27
2022-12-24T02:53:01.954Z,1002.26
2022-12-24T02:54:01.138Z,1002.33
2022-12-24T02:55:01.111Z,1002.33
2022-12-24T02:56:01.116Z,1002.3
2022-12-24T02:57:10.609Z,1002.33
2022-12-24T02:58:01.501Z,1002.35
2022-12-24T02:59:01.179Z,1002.36
2022-12-24T03:00:01.126Z,1002.42
2022-12-24T03:01:01.215Z,1002.36
2022-12-24T03:02:14.068Z,1002.37
2022-12-24T03:03:01.296Z,1002.39
2022-12-24T03:04:01.102Z,1002.4
2022-12-24T03:05:01.203Z,1002.4
2022-12-24T03:06:01.176Z,1002.4
2022-12-24T03:07:16.098Z,1002.44
2022-12-24T03:08:01.581Z,1002.43
2022-12-24T03:09:03.870Z,1002.47
2022-12-24T03:10:04.656Z,1002.49
2022-12-24T03:11:01.810Z,1002.47
2022-12-24T03:12:01.708Z,1002.48
2022-12-24T03:13:01.829Z,1002.45
2022-12-24T03:14:01.265Z,1002.54
2022-12-24T03:15:01.195Z,1002.5
2022-12-24T03:16:01.957Z,1002.5
2022-12-24T03:17:01.072Z,1002.53
2022-12-24T03:18:01.277Z,1002.55
2022-12-24T03:19:02.119Z,1002.56
2022-12-24T03:20:03.272Z,1002.64
2022-12-24T03:21:01.181Z,1002.67
2022-12-24T03:22:01.188Z,1002.68
2022-12-24T03:23:01.114Z,1002.67
2022-12-24T03:24:01.625Z,1002.72
2022-12-24T03:25:01.747Z,1002.77
2022-12-24T03:26:00.939Z,1002.8
2022-12-24T03:27:00.934Z,1002.79
2022-12-24T03:28:01.079Z,1002.76
2022-12-24T03:29:01.192Z,1002.78
2022-12-24T03:30:01.166Z,1002.8
2022-12-24T03:31:01.133Z,1002.86
2022-12-24T03:32:01.277Z,1002.82
2022-12-24T03:33:01.111Z,1002.82
2022-12-24T03:34:01.846Z,1002.84
2022-12-24T03:35:01.138Z,1002.87
2022-12-24T03:36:01.159Z,1002.89
2022-12-24T03:37:01.152Z,1002.87
2022-12-24T03:38:01.150Z,1002.89
2022-12-24T03:39:01.174Z,1002.93
2022-12-24T03:40:01.075Z,1002.94
2022-12-24T03:41:01.457Z,1002.92
2022-12-24T03:42:01.202Z,1002.98
2022-12-24T03:43:01.109Z,1002.96
2022-12-24T03:44:01.077Z,1002.96
2022-12-24T03:45:01.096Z,1002.99
2022-12-24T03:46:01.171Z,1003.02
2022-12-24T03:47:01.109Z,1003.03
2022-12-24T03:48:01.302Z,1003.04
2022-12-24T03:49:01.193Z,1003.06
2022-12-24T03:50:01.159Z,1003.09
2022-12-24T03:51:01.891Z,1003.1
2022-12-24T03:52:01.948Z,1003.07
2022-12-24T03:53:01.148Z,1003.13
2022-12-24T03:54:02.082Z,1003.14
2022-12-24T03:55:01.153Z,1003.11
2022-12-24T03:56:01.057Z,1003.16
2022-12-24T03:57:01.103Z,1003.18
2022-12-24T03:58:01.074Z,1003.22
2022-12-24T03:59:01.101Z,1003.23
2022-12-24T04:00:01.081Z,1003.28
2022-12-24T04:01:01.061Z,1003.3
2022-12-24T04:02:01.340Z,1003.32
2022-12-24T04:03:01.603Z,1003.34
2022-12-24T04:04:01.082Z,1003.34
2022-12-24T04:05:01.092Z,1003.39
2022-12-24T04:06:01.133Z,1003.39
2022-12-24T04:07:01.135Z,1003.39
2022-12-24T04:08:01.047Z,1003.42
2022-12-24T04:09:01.152Z,1003.47
2022-12-24T04:10:01.473Z,1003.45
2022-12-24T04:11:07.801Z,1003.51
2022-12-24T04:12:01.195Z,1003.47
2022-12-24T04:13:01.097Z,1003.51
2022-12-24T04:14:01.041Z,1003.54
2022-12-24T04:15:01.112Z,1003.55
2022-12-24T04:16:01.143Z,1003.55
2022-12-24T04:17:01.190Z,1003.54
2022-12-24T04:18:01.100Z,1003.58
2022-12-24T04:19:01.445Z,1003.58
2022-12-24T04:20:02.280Z,1003.64
2022-12-24T04:21:01.146Z,1003.64
2022-12-24T04:22:01.120Z,1003.66
2022-12-24T04:23:04.008Z,1003.68
2022-12-24T04:24:01.120Z,1003.67
2022-12-24T04:25:01.147Z,1003.65
2022-12-24T04:26:01.176Z,1003.67
2022-12-24T04:27:01.061Z,1003.68
2022-12-24T04:28:05.985Z,1003.7
2022-12-24T04:29:02.914Z,1003.76
2022-12-24T04:30:01.718Z,1003.77
2022-12-24T04:31:01.064Z,1003.75
2022-12-24T04:32:02.517Z,1003.76
2022-12-24T04:33:05.999Z,1003.78
2022-12-24T04:34:01.507Z,1003.77
2022-12-24T04:35:01.325Z,1003.78
2022-12-24T04:36:02.256Z,1003.75
2022-12-24T04:37:01.205Z,1003.8
2022-12-24T04:38:08.447Z,1003.8
2022-12-24T04:39:01.876Z,1003.78
2022-12-24T04:40:02.369Z,1003.83
2022-12-24T04:41:01.159Z,1003.83
2022-12-24T04:42:01.219Z,1003.85
2022-12-24T04:43:11.769Z,1003.89
2022-12-24T04:44:03.971Z,1003.88
2022-12-24T04:45:01.379Z,1003.88
2022-12-24T04:46:02.524Z,1003.93
2022-12-24T04:47:01.080Z,1003.98
2022-12-24T04:48:14.231Z,1004.07
2022-12-24T04:49:01.147Z,1003.98
2022-12-24T04:50:01.091Z,1004.04
2022-12-24T04:51:01.816Z,1004.08
2022-12-24T04:52:00.630Z,1004.1
2022-12-24T04:53:00.283Z,1004.12
2022-12-24T04:53:59.880Z,1004.14
2022-12-24T04:54:59.585Z,1004.12
2022-12-24T04:56:01.418Z,1004.12
2022-12-24T04:57:01.533Z,1004.14
2022-12-24T04:58:01.258Z,1004.13
2022-12-24T04:59:01.889Z,1004.16
2022-12-24T05:00:01.110Z,1004.21
2022-12-24T05:01:01.100Z,1004.17
2022-12-24T05:02:01.290Z,1004.21
2022-12-24T05:03:02.077Z,1004.22
2022-12-24T05:04:02.003Z,1004.18
2022-12-24T05:05:01.299Z,1004.23
2022-12-24T05:06:01.609Z,1004.23
2022-12-24T05:07:01.123Z,1004.27
2022-12-24T05:08:01.126Z,1004.3
2022-12-24T05:09:01.154Z,1004.27
2022-12-24T05:10:01.123Z,1004.26
2022-12-24T05:11:01.215Z,1004.3
2022-12-24T05:12:02.052Z,1004.27
2022-12-24T05:13:01.138Z,1004.34
2022-12-24T05:14:01.159Z,1004.31
2022-12-24T05:15:01.566Z,1004.34
2022-12-24T05:16:01.233Z,1004.35
2022-12-24T05:17:01.125Z,1004.39
2022-12-24T05:18:01.074Z,1004.42
2022-12-24T05:19:01.223Z,1004.44
2022-12-24T05:20:01.179Z,1004.47
2022-12-24T05:21:01.860Z,1004.51
2022-12-24T05:22:01.132Z,1004.52
2022-12-24T05:23:01.280Z,1004.57
2022-12-24T05:24:01.211Z,1004.58
2022-12-24T05:25:01.981Z,1004.59
2022-12-24T05:26:01.133Z,1004.56
2022-12-24T05:27:01.131Z,1004.58
2022-12-24T05:28:01.141Z,1004.6
2022-12-24T05:29:00.956Z,1004.6
2022-12-24T05:30:01.158Z,1004.66
2022-12-24T05:31:01.195Z,1004.64
2022-12-24T05:32:01.529Z,1004.59
2022-12-24T05:33:01.455Z,1004.63
2022-12-24T05:34:01.093Z,1004.69
2022-12-24T05:35:01.781Z,1004.65
2022-12-24T05:36:01.076Z,1004.75
2022-12-24T05:37:01.102Z,1004.77
2022-12-24T05:38:01.304Z,1004.81
2022-12-24T05:39:01.106Z,1004.85
2022-12-24T05:40:01.142Z,1004.85
2022-12-24T05:41:01.533Z,1004.85
2022-12-24T05:42:02.030Z,1004.91
2022-12-24T05:43:02.967Z,1004.99
2022-12-24T05:44:00.709Z,1005
2022-12-24T05:45:01.040Z,1004.99
2022-12-24T05:46:01.595Z,1005.07
2022-12-24T05:47:01.953Z,1005.09
2022-12-24T05:48:01.548Z,1005.09
2022-12-24T05:49:01.076Z,1005.15
2022-12-24T05:50:00.676Z,1005.13
2022-12-24T05:51:00.300Z,1005.14
2022-12-24T05:51:59.939Z,1005.13
2022-12-24T05:52:59.532Z,1005.18
2022-12-24T05:54:01.933Z,1005.17
2022-12-24T05:55:02.546Z,1005.27
2022-12-24T05:56:01.215Z,1005.18
2022-12-24T05:57:01.111Z,1005.16
2022-12-24T05:58:01.139Z,1005.19
2022-12-24T05:59:01.177Z,1005.19
2022-12-24T06:00:01.170Z,1005.21
2022-12-24T06:01:01.152Z,1005.25
2022-12-24T06:02:01.374Z,1005.28
2022-12-24T06:03:01.320Z,1005.3
2022-12-24T06:04:01.382Z,1005.32
2022-12-24T06:05:01.313Z,1005.31
2022-12-24T06:06:01.970Z,1005.3
2022-12-24T06:07:01.762Z,1005.3
2022-12-24T06:08:01.100Z,1005.35
2022-12-24T06:09:04.251Z,1005.33
2022-12-24T06:10:01.109Z,1005.34
2022-12-24T06:11:01.806Z,1005.34
2022-12-24T06:12:01.383Z,1005.42
2022-12-24T06:13:01.118Z,1005.39
2022-12-24T06:14:05.685Z,1005.43
2022-12-24T06:15:01.362Z,1005.4
2022-12-24T06:16:01.653Z,1005.44
2022-12-24T06:17:01.875Z,1005.44
2022-12-24T06:18:01.155Z,1005.52
2022-12-24T06:19:08.514Z,1005.45
2022-12-24T06:20:01.237Z,1005.48
2022-12-24T06:21:01.214Z,1005.42
2022-12-24T06:22:01.087Z,1005.43
2022-12-24T06:23:01.118Z,1005.47
2022-12-24T06:24:10.495Z,1005.47
2022-12-24T06:25:02.179Z,1005.56
2022-12-24T06:26:02.306Z,1005.57
2022-12-24T06:27:03.160Z,1005.58
2022-12-24T06:28:02.118Z,1005.66
2022-12-24T06:29:14.271Z,1005.65
2022-12-24T06:30:00.673Z,1005.74
2022-12-24T06:31:03.205Z,1005.73
2022-12-24T06:32:01.584Z,1005.81
2022-12-24T06:33:01.160Z,1005.83
2022-12-24T06:34:16.213Z,1005.81
2022-12-24T06:35:01.154Z,1005.8
2022-12-24T06:36:01.795Z,1005.85
2022-12-24T06:37:01.092Z,1005.83
2022-12-24T06:38:04.464Z,1005.92
2022-12-24T06:39:01.068Z,1005.9
2022-12-24T06:40:01.275Z,1005.93
2022-12-24T06:41:01.393Z,1005.94
2022-12-24T06:42:02.166Z,1005.99
2022-12-24T06:43:02.163Z,1005.98
2022-12-24T06:44:01.125Z,1006.05
2022-12-24T06:45:07.779Z,1006.03
2022-12-24T06:46:01.869Z,1006.08
2022-12-24T06:47:01.274Z,1006.11
2022-12-24T06:48:01.145Z,1006.07
2022-12-24T06:49:01.140Z,1006.14
2022-12-24T06:50:01.150Z,1006.04
2022-12-24T06:51:01.155Z,1006.07
2022-12-24T06:52:00.854Z,1006.12
2022-12-24T06:53:01.161Z,1006.14
2022-12-24T06:54:01.225Z,1006.19
2022-12-24T06:55:01.087Z,1006.2
2022-12-24T06:56:01.079Z,1006.16
2022-12-24T06:57:01.124Z,1006.24
2022-12-24T06:58:01.096Z,1006.23
2022-12-24T06:59:05.282Z,1006.26
2022-12-24T07:00:00.720Z,1006.24
2022-12-24T07:01:00.376Z,1006.24
2022-12-24T07:02:00.106Z,1006.31
2022-12-24T07:02:59.906Z,1006.35
2022-12-24T07:03:59.720Z,1006.3
2022-12-24T07:05:01.720Z,1006.38
2022-12-24T07:06:01.119Z,1006.36
2022-12-24T07:07:00.718Z,1006.33
2022-12-24T07:08:00.323Z,1006.36
2022-12-24T07:08:59.917Z,1006.35
2022-12-24T07:09:59.525Z,1006.4
2022-12-24T07:11:01.122Z,1006.4
2022-12-24T07:12:00.976Z,1006.41
2022-12-24T07:13:01.086Z,1006.39
2022-12-24T07:14:01.112Z,1006.36
2022-12-24T07:15:01.228Z,1006.4
2022-12-24T07:16:01.528Z,1006.43
2022-12-24T07:17:01.659Z,1006.48
2022-12-24T07:18:01.122Z,1006.45
2022-12-24T07:19:01.259Z,1006.49
2022-12-24T07:20:01.153Z,1006.55
2022-12-24T07:21:01.131Z,1006.53
2022-12-24T07:22:01.147Z,1006.55
2022-12-24T07:23:01.149Z,1006.5
2022-12-24T07:24:01.157Z,1006.49
2022-12-24T07:25:01.196Z,1006.53
2022-12-24T07:26:01.090Z,1006.55
2022-12-24T07:27:01.095Z,1006.62
2022-12-24T07:28:01.196Z,1006.64
2022-12-24T07:29:01.858Z,1006.65
2022-12-24T07:30:02.814Z,1006.72
2022-12-24T07:31:02.273Z,1006.71
2022-12-24T07:32:00.842Z,1006.67
2022-12-24T07:33:01.066Z,1006.68
2022-12-24T07:34:01.105Z,1006.71
2022-12-24T07:35:01.051Z,1006.69
2022-12-24T07:36:00.897Z,1006.76
2022-12-24T07:37:01.554Z,1006.75
2022-12-24T07:38:02.203Z,1006.84
2022-12-24T07:39:02.818Z,1006.84
2022-12-24T07:40:01.083Z,1006.79
2022-12-24T07:41:01.168Z,1006.7
2022-12-24T07:42:01.800Z,1006.73
2022-12-24T07:43:01.894Z,1006.74
2022-12-24T07:44:01.760Z,1006.8
2022-12-24T07:45:01.203Z,1006.82
2022-12-24T07:46:02.438Z,1006.86
2022-12-24T07:47:01.544Z,1006.9
2022-12-24T07:48:02.216Z,1006.92
2022-12-24T07:49:01.991Z,1006.95
2022-12-24T07:50:01.145Z,1006.9
2022-12-24T07:51:01.105Z,1006.89
2022-12-24T07:52:00.806Z,1006.87
2022-12-24T07:53:00.395Z,1006.86
2022-12-24T07:54:00.117Z,1006.92
2022-12-24T07:55:01.886Z,1006.97
2022-12-24T07:56:00.832Z,1007.05
2022-12-24T07:57:00.534Z,1007.06
2022-12-24T07:58:00.241Z,1007.07
2022-12-24T07:58:59.910Z,1007
2022-12-24T08:00:04.151Z,1007.04
2022-12-24T08:01:00.665Z,1007.02
2022-12-24T08:02:00.963Z,1006.98
2022-12-24T08:03:01.325Z,1006.96
2022-12-24T08:04:01.142Z,1006.98
2022-12-24T08:05:05.616Z,1007.03
2022-12-24T08:06:01.224Z,1007.03
2022-12-24T08:07:01.234Z,1007.08
2022-12-24T08:08:01.523Z,1007.04
2022-12-24T08:09:01.339Z,1007.1
2022-12-24T08:10:07.830Z,1007.09
2022-12-24T08:11:01.198Z,1007.1
2022-12-24T08:12:00.950Z,1007.11
2022-12-24T08:13:01.087Z,1007.14
2022-12-24T08:14:01.178Z,1007.15
2022-12-24T08:15:11.209Z,1007.16
2022-12-24T08:16:02.049Z,1007.18
2022-12-24T08:17:02.114Z,1007.19
2022-12-24T08:18:01.392Z,1007.19
2022-12-24T08:19:01.113Z,1007.23
2022-12-24T08:20:13.466Z,1007.18
2022-12-24T08:21:01.101Z,1007.22
2022-12-24T08:22:01.154Z,1007.26
2022-12-24T08:23:01.101Z,1007.26
2022-12-24T08:24:01.066Z,1007.27
2022-12-24T08:25:15.555Z,1007.25
2022-12-24T08:26:01.527Z,1007.28
2022-12-24T08:27:01.161Z,1007.32
2022-12-24T08:28:01.142Z,1007.29
2022-12-24T08:29:01.136Z,1007.26
2022-12-24T08:30:01.165Z,1007.29
2022-12-24T08:31:01.162Z,1007.33
2022-12-24T08:32:00.794Z,1007.29
2022-12-24T08:33:01.368Z,1007.32
2022-12-24T08:34:02.608Z,1007.31
2022-12-24T08:35:02.029Z,1007.36
2022-12-24T08:36:01.468Z,1007.39
2022-12-24T08:37:01.101Z,1007.39
2022-12-24T08:38:01.099Z,1007.4
2022-12-24T08:39:01.206Z,1007.42
2022-12-24T08:40:01.141Z,1007.45
2022-12-24T08:41:01.117Z,1007.47
2022-12-24T08:42:01.194Z,1007.55
2022-12-24T08:43:01.196Z,1007.56
2022-12-24T08:44:01.274Z,1007.6
2022-12-24T08:45:01.541Z,1007.63
2022-12-24T08:46:01.198Z,1007.59
2022-12-24T08:47:01.072Z,1007.62
2022-12-24T08:48:01.178Z,1007.63
2022-12-24T08:49:01.085Z,1007.62
2022-12-24T08:50:01.077Z,1007.6
2022-12-24T08:51:01.099Z,1007.63
2022-12-24T08:52:00.799Z,1007.64
2022-12-24T08:53:01.110Z,1007.62
2022-12-24T08:54:01.216Z,1007.67
2022-12-24T08:55:01.144Z,1007.68
2022-12-24T08:56:01.087Z,1007.73
2022-12-24T08:57:01.054Z,1007.75
2022-12-24T08:58:01.134Z,1007.76
2022-12-24T08:59:01.739Z,1007.76
2022-12-24T09:00:01.979Z,1007.8
2022-12-24T09:01:01.488Z,1007.75
2022-12-24T09:02:01.372Z,1007.81
2022-12-24T09:03:01.273Z,1007.8
2022-12-24T09:04:01.188Z,1007.75
2022-12-24T09:05:01.875Z,1007.87
2022-12-24T09:06:01.563Z,1007.83
2022-12-24T09:07:01.079Z,1007.85
2022-12-24T09:08:01.125Z,1007.92
2022-12-24T09:09:01.102Z,1007.86
2022-12-24T09:10:01.094Z,1007.96
2022-12-24T09:11:01.239Z,1007.97
2022-12-24T09:12:01.196Z,1008.02
2022-12-24T09:13:01.500Z,1008.03
2022-12-24T09:14:01.524Z,1008.06
2022-12-24T09:15:03.709Z,1008.05
2022-12-24T09:16:01.142Z,1008.05
2022-12-24T09:17:01.285Z,1008.1
2022-12-24T09:18:01.143Z,1008.1
2022-12-24T09:19:01.276Z,1008.1
2022-12-24T09:20:01.097Z,1008.08
2022-12-24T09:21:01.484Z,1008.1
2022-12-24T09:22:01.935Z,1008.09
2022-12-24T09:23:01.133Z,1008.11
2022-12-24T09:24:01.119Z,1008.14
2022-12-24T09:25:01.092Z,1008.17
2022-12-24T09:26:01.139Z,1008.21
2022-12-24T09:27:01.112Z,1008.17
2022-12-24T09:28:01.445Z,1008.24
2022-12-24T09:29:01.135Z,1008.22
2022-12-24T09:30:01.171Z,1008.24
2022-12-24T09:31:01.133Z,1008.25
2022-12-24T09:32:02.007Z,1008.24
2022-12-24T09:33:01.160Z,1008.32
2022-12-24T09:34:01.139Z,1008.28
2022-12-24T09:35:01.467Z,1008.39
2022-12-24T09:36:01.084Z,1008.33
2022-12-24T09:37:01.090Z,1008.42
2022-12-24T09:38:01.078Z,1008.36
2022-12-24T09:39:01.797Z,1008.41
2022-12-24T09:40:02.186Z,1008.37
2022-12-24T09:41:07.061Z,1008.44
2022-12-24T09:42:01.406Z,1008.44
2022-12-24T09:43:01.418Z,1008.48
2022-12-24T09:44:01.106Z,1008.48
2022-12-24T09:45:01.173Z,1008.5
2022-12-24T09:46:01.193Z,1008.52
2022-12-24T09:47:04.141Z,1008.46
2022-12-24T09:48:01.160Z,1008.48
2022-12-24T09:49:01.146Z,1008.5
2022-12-24T09:50:01.533Z,1008.49
2022-12-24T09:51:02.691Z,1008.53
2022-12-24T09:52:01.252Z,1008.53
2022-12-24T09:53:02.035Z,1008.5
2022-12-24T09:54:02.095Z,1008.49
2022-12-24T09:55:01.107Z,1008.53
2022-12-24T09:56:05.594Z,1008.62
2022-12-24T09:57:01.219Z,1008.58
2022-12-24T09:58:01.213Z,1008.6
2022-12-24T09:59:01.491Z,1008.62
2022-12-24T10:00:03.986Z,1008.71
2022-12-24T10:01:08.572Z,1008.64
2022-12-24T10:02:01.498Z,1008.61
2022-12-24T10:03:01.205Z,1008.67
2022-12-24T10:04:01.136Z,1008.64
2022-12-24T10:05:01.179Z,1008.69
2022-12-24T10:06:11.359Z,1008.74
2022-12-24T10:07:02.214Z,1008.76
2022-12-24T10:08:01.372Z,1008.72
2022-12-24T10:09:01.360Z,1008.72
2022-12-24T10:10:01.979Z,1008.69
2022-12-24T10:11:14.701Z,1008.66
2022-12-24T10:12:00.579Z,1008.66
2022-12-24T10:13:00.215Z,1008.65
2022-12-24T10:13:59.865Z,1008.66
2022-12-24T10:15:01.553Z,1008.76
2022-12-24T10:16:01.172Z,1008.78
2022-12-24T10:17:01.201Z,1008.81
2022-12-24T10:18:01.117Z,1008.76
2022-12-24T10:19:01.150Z,1008.8
2022-12-24T10:20:01.125Z,1008.8
2022-12-24T10:21:02.046Z,1008.81
2022-12-24T10:22:01.721Z,1008.8
2022-12-24T10:23:01.072Z,1008.77
2022-12-24T10:24:01.163Z,1008.78
2022-12-24T10:25:01.055Z,1008.81
2022-12-24T10:26:01.190Z,1008.88
2022-12-24T10:27:01.079Z,1008.84
2022-12-24T10:28:01.333Z,1008.96
2022-12-24T10:29:01.466Z,1008.9
2022-12-24T10:30:01.936Z,1008.93
2022-12-24T10:31:01.579Z,1008.92
2022-12-24T10:32:01.309Z,1008.93
2022-12-24T10:33:02.113Z,1008.92
2022-12-24T10:34:01.098Z,1008.96
2022-12-24T10:35:01.325Z,1008.97
2022-12-24T10:36:05.368Z,1009.04
2022-12-24T10:37:01.153Z,1009.05
2022-12-24T10:38:01.177Z,1009.1
2022-12-24T10:39:01.161Z,1009.16
2022-12-24T10:40:01.299Z,1009.12
2022-12-24T10:41:00.949Z,1009.12
2022-12-24T10:42:01.077Z,1009.18
2022-12-24T10:43:01.106Z,1009.12
2022-12-24T10:44:01.099Z,1009.15
2022-12-24T10:45:01.105Z,1009.12
2022-12-24T10:46:01.188Z,1009.04
2022-12-24T10:47:01.869Z,1009.11
2022-12-24T10:48:01.531Z,1009.21
2022-12-24T10:49:01.736Z,1009.16
2022-12-24T10:50:01.143Z,1009.18
2022-12-24T10:51:01.208Z,1009.19
2022-12-24T10:52:00.875Z,1009.21
2022-12-24T10:53:00.528Z,1009.24
2022-12-24T10:54:00.121Z,1009.2
2022-12-24T10:54:59.800Z,1009.34
2022-12-24T10:56:01.400Z,1009.32
2022-12-24T10:57:01.061Z,1009.4
2022-12-24T10:58:01.179Z,1009.43
2022-12-24T10:59:01.081Z,1009.33
2022-12-24T11:00:01.082Z,1009.47
2022-12-24T11:01:01.114Z,1009.5
2022-12-24T11:02:01.619Z,1009.36
2022-12-24T11:03:01.421Z,1009.37
2022-12-24T11:04:01.669Z,1009.46
2022-12-24T11:05:01.185Z,1009.38
2022-12-24T11:06:01.130Z,1009.51
2022-12-24T11:07:01.119Z,1009.45
2022-12-24T11:08:01.152Z,1009.52
2022-12-24T11:09:01.065Z,1009.56
2022-12-24T11:10:01.164Z,1009.58
2022-12-24T11:11:01.181Z,1009.61
2022-12-24T11:12:06.921Z,1009.64
2022-12-24T11:13:35.616Z,1009.59
2022-12-24T11:14:01.104Z,1009.69
2022-12-24T11:15:01.170Z,1009.69
2022-12-24T11:16:01.122Z,1009.73
2022-12-24T11:17:01.297Z,1009.77
2022-12-24T11:18:02.001Z,1009.79
2022-12-24T11:19:02.533Z,1009.76
2022-12-24T11:20:01.121Z,1009.75
2022-12-24T11:21:01.191Z,1009.89
2022-12-24T11:22:01.131Z,1009.85
2022-12-24T11:23:01.144Z,1009.8
2022-12-24T11:24:01.049Z,1009.83
2022-12-24T11:25:01.131Z,1009.83
2022-12-24T11:26:01.151Z,1009.88
2022-12-24T11:27:01.543Z,1009.83
2022-12-24T11:28:01.152Z,1009.9
2022-12-24T11:29:01.174Z,1009.91
2022-12-24T11:30:03.038Z,1009.87
2022-12-24T11:31:03.064Z,1009.87
2022-12-24T11:32:01.379Z,1009.79
2022-12-24T11:33:01.111Z,1009.88
2022-12-24T11:34:01.492Z,1009.85
2022-12-24T11:35:01.116Z,1009.91
2022-12-24T11:36:01.854Z,1009.93
2022-12-24T11:37:05.203Z,1009.96
2022-12-24T11:38:01.882Z,1009.99
2022-12-24T11:39:01.147Z,1009.98
2022-12-24T11:40:00.634Z,1009.94
2022-12-24T11:41:00.319Z,1009.9
2022-12-24T11:42:06.355Z,1009.96
2022-12-24T11:43:01.151Z,1010
2022-12-24T11:44:01.186Z,1010.02
2022-12-24T11:45:01.171Z,1010.06
2022-12-24T11:46:01.286Z,1010.02
2022-12-24T11:47:09.409Z,1010.03
2022-12-24T11:48:02.446Z,1010.05
2022-12-24T11:49:07.522Z,1010.06
2022-12-24T11:50:17.748Z,1010.02
2022-12-24T11:51:01.166Z,1010.08
2022-12-24T11:52:13.668Z,1010.13
2022-12-24T11:53:01.121Z,1010.08
2022-12-24T11:54:00.590Z,1010.1
2022-12-24T11:55:00.237Z,1010.06
2022-12-24T11:56:00.304Z,1010.08
2022-12-24T11:57:15.538Z,1010
2022-12-24T11:58:01.505Z,1010.06
2022-12-24T11:59:01.165Z,1010.06
2022-12-24T12:00:01.156Z,1010.08
2022-12-24T12:01:01.152Z,1010.06
2022-12-24T12:02:01.173Z,1010.09
2022-12-24T12:03:01.199Z,1010.09
2022-12-24T12:04:01.907Z,1010.06
2022-12-24T12:05:01.138Z,1010.09
2022-12-24T12:06:01.452Z,1010.14
2022-12-24T12:07:01.173Z,1010.17
2022-12-24T12:08:01.124Z,1010.21